Time;durP1;ratioP1;P1;durP2;ratioP2;P2;SDS_P1;SDS_P2;PMS_P1;PMS_P2;Temp;Humidity;BMP_temperature;BMP_pressure;BME280_temperature;BME280_humidity;BME280_pressure;Samples;Min_cycle;Max_cycle;Signal;HPM_P1;HPM_P2
2023/02/27 00:00:57;;;;;;;13.32;6.78;;;;;;;;;;4866498;29;20036;-77
2023/02/27 00:03:24;;;;;;;9.13;5.55;;;;;;;;;;4872830;29;20021;-77
2023/02/27 00:05:50;;;;;;;11.82;5.88;;;;;;;;;;4886942;29;20439;-78
2023/02/27 00:08:16;;;;;;;7.40;4.47;;;;;;;;;;4863956;29;20433;-75
2023/02/27 00:10:43;;;;;;;10.43;6.85;;;;;;;;;;4866869;29;20052;-77
2023/02/27 00:13:09;;;;;;;19.40;9.20;;;;;;;;;;4862363;29;20026;-78
2023/02/27 00:15:37;;;;;;;23.42;11.43;;;;;;;;;;4867432;29;20052;-78
2023/02/27 00:18:03;;;;;;;21.38;9.30;;;;;;;;;;4867127;29;20021;-78
2023/02/27 00:20:31;;;;;;;35.10;16.13;;;;;;;;;;4878821;29;20053;-78
2023/02/27 00:22:57;;;;;;;7.57;4.00;;;;;;;;;;4874219;29;20029;-77
2023/02/27 00:25:23;;;;;;;12.00;4.43;;;;;;;;;;4873500;29;20116;-78
2023/02/27 00:27:49;;;;;;;5.63;4.10;;;;;;;;;;4881450;29;20037;-76
2023/02/27 00:30:15;;;;;;;8.13;4.78;;;;;;;;;;4876581;29;20043;-78
2023/02/27 00:32:41;;;;;;;6.82;3.53;;;;;;;;;;4877277;29;20013;-77
2023/02/27 00:35:09;;;;;;;11.15;6.15;;;;;;;;;;4871424;29;20021;-78
2023/02/27 00:37:35;;;;;;;11.38;5.10;;;;;;;;;;4869828;29;20462;-77
2023/02/27 00:40:03;;;;;;;5.25;3.65;;;;;;;;;;4869906;29;20033;-78
2023/02/27 00:42:30;;;;;;;6.65;3.20;;;;;;;;;;4862258;29;20109;-77
2023/02/27 00:44:57;;;;;;;10.13;4.47;;;;;;;;;;4860719;29;20521;-77
2023/02/27 00:47:23;;;;;;;5.68;4.05;;;;;;;;;;4869553;29;20041;-77
2023/02/27 00:49:49;;;;;;;7.47;3.70;;;;;;;;;;4867723;29;20120;-78
2023/02/27 00:52:15;;;;;;;5.97;3.58;;;;;;;;;;4873097;29;20041;-77
2023/02/27 00:54:41;;;;;;;6.05;4.00;;;;;;;;;;4875538;29;20029;-79
2023/02/27 00:57:07;;;;;;;5.55;3.40;;;;;;;;;;4870584;29;20030;-78
2023/02/27 00:59:33;;;;;;;5.05;3.03;;;;;;;;;;4870345;29;20043;-78
2023/02/27 01:01:59;;;;;;;7.75;3.58;;;;;;;;;;4877783;29;20056;-78
2023/02/27 01:04:26;;;;;;;6.55;3.85;;;;;;;;;;4877409;29;20033;-79
2023/02/27 01:06:52;;;;;;;6.43;4.43;;;;;;;;;;4874409;29;20040;-78
2023/02/27 01:09:18;;;;;;;7.57;4.18;;;;;;;;;;4870553;29;20052;-78
2023/02/27 01:11:44;;;;;;;4.30;2.70;;;;;;;;;;4874058;29;20497;-78
2023/02/27 01:14:10;;;;;;;6.68;2.45;;;;;;;;;;4872740;29;20062;-80
2023/02/27 01:16:36;;;;;;;5.45;2.40;;;;;;;;;;4868499;29;20033;-77
2023/02/27 01:19:02;;;;;;;3.40;2.15;;;;;;;;;;4864911;29;20025;-78
2023/02/27 01:21:28;;;;;;;3.42;2.20;;;;;;;;;;4870361;29;20052;-78
2023/02/27 01:23:54;;;;;;;3.25;2.28;;;;;;;;;;4877482;29;20044;-78
2023/02/27 01:26:21;;;;;;;7.65;2.85;;;;;;;;;;4875791;29;20389;-78
2023/02/27 01:28:47;;;;;;;5.15;2.20;;;;;;;;;;4864930;29;20085;-79
2023/02/27 01:31:13;;;;;;;8.05;2.30;;;;;;;;;;4874124;29;20041;-77
2023/02/27 01:33:39;;;;;;;3.97;2.30;;;;;;;;;;4871630;29;20396;-78
2023/02/27 01:36:05;;;;;;;5.88;2.20;;;;;;;;;;4878046;29;20065;-78
2023/02/27 01:38:32;;;;;;;5.05;2.28;;;;;;;;;;4874027;29;20527;-78
2023/02/27 01:40:59;;;;;;;5.65;2.28;;;;;;;;;;4876157;29;20029;-77
2023/02/27 01:43:25;;;;;;;4.82;2.60;;;;;;;;;;4877086;29;20032;-76
2023/02/27 01:45:52;;;;;;;6.40;2.95;;;;;;;;;;4877715;29;20048;-77
2023/02/27 01:48:20;;;;;;;4.05;2.15;;;;;;;;;;4871125;29;20128;-77
2023/02/27 01:50:54;;;;;;;7.43;2.33;;;;;;;;;;4872861;29;20025;-77
2023/02/27 01:53:24;;;;;;;6.28;2.20;;;;;;;;;;4878115;29;20021;-78
2023/02/27 01:55:52;;;;;;;6.95;2.20;;;;;;;;;;4872969;29;20029;-77
2023/02/27 01:58:18;;;;;;;6.60;2.58;;;;;;;;;;4880784;29;20025;-77
2023/02/27 02:00:45;;;;;;;7.18;2.70;;;;;;;;;;4876772;29;20085;-77
2023/02/27 02:03:26;;;;;;;4.63;2.20;;;;;;;;;;4877049;29;20032;-77
2023/02/27 02:05:53;;;;;;;2.75;2.03;;;;;;;;;;4878821;29;20033;-78
2023/02/27 02:08:20;;;;;;;5.70;2.90;;;;;;;;;;4883238;29;20442;-76
2023/02/27 02:10:47;;;;;;;4.10;3.28;;;;;;;;;;4874651;29;20116;-78
2023/02/27 02:13:14;;;;;;;2.65;2.00;;;;;;;;;;4860905;29;20029;-77
2023/02/27 02:15:45;;;;;;;5.07;2.03;;;;;;;;;;4866384;29;20924;-77
2023/02/27 02:18:33;;;;;;;3.70;2.22;;;;;;;;;;4872422;29;20029;-77
2023/02/27 02:21:31;;;;;;;5.18;2.00;;;;;;;;;;4875766;29;20033;-79
2023/02/27 02:24:06;;;;;;;5.88;2.80;;;;;;;;;;4830862;29;20037;-78
2023/02/27 02:26:39;;;;;;;5.15;2.20;;;;;;;;;;4871138;29;20510;-76
2023/02/27 02:29:15;;;;;;;4.20;2.25;;;;;;;;;;4871604;29;20028;-77
2023/02/27 02:31:40;;;;;;;;;;;;;;;;;;4879440;29;20096;-77
2023/02/27 02:34:06;;;;;;;;;;;;;;;;;;4876256;29;20361;-79
2023/02/27 02:36:42;;;;;;;2.95;2.25;;;;;;;;;;4867465;29;20468;-78
2023/02/27 02:39:17;;;;;;;4.40;2.33;;;;;;;;;;4877751;29;20086;-78
2023/02/27 02:41:56;;;;;;;5.40;2.45;;;;;;;;;;4876976;29;20025;-76
2023/02/27 02:44:37;;;;;;;3.45;2.00;;;;;;;;;;4873584;29;20484;-78
2023/02/27 02:47:03;;;;;;;4.97;2.50;;;;;;;;;;4881209;29;20056;-77
2023/02/27 02:49:43;;;;;;;7.90;2.75;;;;;;;;;;4881875;29;20032;-78
2023/02/27 02:52:16;;;;;;;4.35;1.92;;;;;;;;;;4891029;29;20525;-78
2023/02/27 02:55:05;;;;;;;6.60;2.25;;;;;;;;;;4893417;29;20112;-78
2023/02/27 02:57:31;;;;;;;6.07;2.08;;;;;;;;;;4896430;29;20471;-77
2023/02/27 03:00:07;;;;;;;5.28;2.03;;;;;;;;;;4890879;29;20096;-76
2023/02/27 03:02:39;;;;;;;5.88;2.30;;;;;;;;;;4888562;29;20197;-78
2023/02/27 03:05:08;;;;;;;4.65;2.00;;;;;;;;;;4889495;29;20036;-79
2023/02/27 03:07:43;;;;;;;10.70;2.33;;;;;;;;;;4890230;29;20554;-76
2023/02/27 03:10:12;;;;;;;6.40;2.25;;;;;;;;;;4883495;29;20036;-77
2023/02/27 03:12:40;;;;;;;8.25;2.72;;;;;;;;;;4888184;29;20069;-77
2023/02/27 03:15:33;;;;;;;4.03;2.80;;;;;;;;;;4880773;29;20039;-77
2023/02/27 03:18:08;;;;;;;4.70;2.10;;;;;;;;;;4883200;29;20045;-77
2023/02/27 03:20:37;;;;;;;3.47;1.80;;;;;;;;;;4884795;29;20091;-78
2023/02/27 03:23:06;;;;;;;9.07;2.25;;;;;;;;;;4889659;29;20052;-77
2023/02/27 03:25:33;;;;;;;5.05;1.92;;;;;;;;;;4891280;29;20032;-77
2023/02/27 03:28:00;;;;;;;3.88;2.00;;;;;;;;;;4897898;29;20551;-78
2023/02/27 03:30:29;;;;;;;5.75;2.00;;;;;;;;;;4891112;29;20036;-77
2023/02/27 03:32:59;;;;;;;4.28;2.03;;;;;;;;;;4886556;29;20024;-78
2023/02/27 03:35:45;;;;;;;4.50;2.30;;;;;;;;;;4895725;29;20029;-77
2023/02/27 03:38:18;;;;;;;6.30;2.10;;;;;;;;;;4886603;29;20037;-77
2023/02/27 03:40:48;;;;;;;6.03;2.30;;;;;;;;;;4874303;29;20033;-78
2023/02/27 03:43:20;;;;;;;3.10;2.10;;;;;;;;;;4884786;29;20036;-78
2023/02/27 03:45:56;;;;;;;5.57;2.30;;;;;;;;;;4887578;29;20084;-78
2023/02/27 03:48:22;;;;;;;3.53;1.90;;;;;;;;;;4889589;29;20049;-79
2023/02/27 03:50:48;;;;;;;4.95;2.10;;;;;;;;;;4882793;29;20032;-78
2023/02/27 03:53:29;;;;;;;6.80;2.10;;;;;;;;;;4871446;29;20036;-78
2023/02/27 03:55:57;;;;;;;5.28;2.55;;;;;;;;;;4890638;29;20036;-78
2023/02/27 03:58:23;;;;;;;4.32;2.00;;;;;;;;;;4879535;29;20021;-76
2023/02/27 04:00:50;;;;;;;3.28;2.10;;;;;;;;;;4886145;29;20064;-77
2023/02/27 04:03:16;;;;;;;4.35;2.10;;;;;;;;;;4894954;29;20039;-77
2023/02/27 04:05:42;;;;;;;3.63;2.17;;;;;;;;;;4889049;29;20084;-77
2023/02/27 04:08:30;;;;;;;5.25;2.03;;;;;;;;;;4888044;29;20488;-78
2023/02/27 04:11:15;;;;;;;3.53;2.22;;;;;;;;;;4889194;29;20033;-76
2023/02/27 04:13:41;;;;;;;5.68;2.67;;;;;;;;;;4883648;29;20037;-77
2023/02/27 04:16:16;;;;;;;4.68;2.53;;;;;;;;;;4883984;29;20033;-77
2023/02/27 04:18:42;;;;;;;4.05;2.25;;;;;;;;;;4893852;29;20388;-77
2023/02/27 04:21:11;;;;;;;5.47;3.38;;;;;;;;;;4884986;29;20036;-77
2023/02/27 04:23:47;;;;;;;3.00;2.20;;;;;;;;;;4888569;29;20056;-77
2023/02/27 04:26:13;;;;;;;9.18;2.20;;;;;;;;;;4889633;29;20064;-78
2023/02/27 04:28:39;;;;;;;5.22;2.30;;;;;;;;;;4873139;29;20035;-77
2023/02/27 04:31:15;;;;;;;5.05;2.65;;;;;;;;;;4879488;29;20095;-77
2023/02/27 04:33:53;;;;;;;5.15;2.53;;;;;;;;;;4879676;29;20037;-78
2023/02/27 04:36:19;;;;;;;7.45;2.42;;;;;;;;;;4881868;29;20135;-77
2023/02/27 04:39:01;;;;;;;4.55;2.70;;;;;;;;;;4886687;29;20024;-77
2023/02/27 04:41:34;;;;;;;4.85;2.30;;;;;;;;;;4885275;29;20033;-77
2023/02/27 04:44:01;;;;;;;5.95;2.60;;;;;;;;;;4884734;29;20504;-79
2023/02/27 04:46:28;;;;;;;4.90;2.78;;;;;;;;;;4894031;29;20045;-78
2023/02/27 04:48:59;;;;;;;6.13;2.58;;;;;;;;;;4860003;29;20025;-77
2023/02/27 04:51:28;;;;;;;3.45;2.22;;;;;;;;;;4878236;29;20039;-78
2023/02/27 04:53:59;;;;;;;5.75;2.63;;;;;;;;;;4876484;29;20104;-78
2023/02/27 04:56:30;;;;;;;4.60;2.67;;;;;;;;;;4860774;29;20488;-77
2023/02/27 04:58:59;;;;;;;7.70;3.05;;;;;;;;;;4876030;29;20025;-77
2023/02/27 05:01:31;;;;;;;5.68;2.60;;;;;;;;;;4877679;29;20460;-78
2023/02/27 05:03:57;;;;;;;4.65;2.53;;;;;;;;;;4875037;29;20116;-78
2023/02/27 05:06:27;;;;;;;4.32;2.40;;;;;;;;;;4873105;29;20056;-78
2023/02/27 05:09:06;;;;;;;4.75;2.65;;;;;;;;;;4876574;29;20036;-79
2023/02/27 05:11:43;;;;;;;4.22;2.58;;;;;;;;;;4860738;29;20540;-77
2023/02/27 05:14:15;;;;;;;6.53;2.85;;;;;;;;;;4876052;29;20040;-79
2023/02/27 05:16:44;;;;;;;3.28;2.25;;;;;;;;;;4874902;29;20104;-78
2023/02/27 05:19:10;;;;;;;9.88;3.35;;;;;;;;;;4871594;29;20029;-78
2023/02/27 05:21:39;;;;;;;4.93;2.47;;;;;;;;;;4875093;29;20029;-78
2023/02/27 05:24:16;;;;;;;7.22;2.70;;;;;;;;;;4876199;29;20086;-77
2023/02/27 05:26:54;;;;;;;7.80;2.50;;;;;;;;;;4880398;29;20479;-77
2023/02/27 05:29:33;;;;;;;4.55;2.38;;;;;;;;;;4881042;29;20037;-78
2023/02/27 05:32:13;;;;;;;3.55;2.25;;;;;;;;;;4873523;29;20062;-78
2023/02/27 05:34:56;;;;;;;7.07;2.60;;;;;;;;;;4871859;29;20088;-77
2023/02/27 05:37:31;;;;;;;4.88;2.55;;;;;;;;;;4882413;29;20097;-77
2023/02/27 05:39:58;;;;;;;3.75;2.97;;;;;;;;;;4860257;29;20458;-80
2023/02/27 05:42:27;;;;;;;8.20;2.13;;;;;;;;;;4878857;29;20037;-78
2023/02/27 05:45:01;;;;;;;3.42;2.10;;;;;;;;;;4877622;29;20033;-78
2023/02/27 05:47:30;;;;;;;4.90;2.00;;;;;;;;;;4878188;29;20082;-77
2023/02/27 05:49:59;;;;;;;6.43;2.38;;;;;;;;;;4897455;29;20032;-77
2023/02/27 05:52:26;;;;;;;5.10;2.38;;;;;;;;;;4896626;29;20024;-76
2023/02/27 05:55:04;;;;;;;5.15;2.20;;;;;;;;;;4895523;29;20602;-77
2023/02/27 05:57:41;;;;;;;5.05;1.80;;;;;;;;;;4903107;29;20084;-77
2023/02/27 06:00:08;;;;;;;4.72;2.00;;;;;;;;;;4899920;29;20040;-78
2023/02/27 06:02:34;;;;;;;2.80;1.90;;;;;;;;;;4900993;29;20033;-77
2023/02/27 06:05:00;;;;;;;7.07;1.92;;;;;;;;;;4892559;29;20025;-78
2023/02/27 06:07:30;;;;;;;3.42;2.00;;;;;;;;;;4891181;29;20101;-77
2023/02/27 06:09:56;;;;;;;3.83;2.00;;;;;;;;;;4893115;29;20479;-78
2023/02/27 06:12:22;;;;;;;5.25;1.85;;;;;;;;;;4891654;29;20052;-78
2023/02/27 06:14:48;;;;;;;4.20;2.00;;;;;;;;;;4897038;29;20693;-79
2023/02/27 06:17:15;;;;;;;6.55;2.63;;;;;;;;;;4900889;29;20024;-77
2023/02/27 06:19:41;;;;;;;3.33;1.77;;;;;;;;;;4880294;29;20036;-78
2023/02/27 06:22:07;;;;;;;3.05;2.45;;;;;;;;;;4876964;29;20043;-78
2023/02/27 06:24:33;;;;;;;2.28;1.83;;;;;;;;;;4890964;29;20033;-78
2023/02/27 06:26:59;;;;;;;3.53;2.00;;;;;;;;;;4894564;29;20065;-78
2023/02/27 06:29:26;;;;;;;2.58;1.65;;;;;;;;;;4887191;29;20032;-77
2023/02/27 06:31:52;;;;;;;5.25;1.88;;;;;;;;;;4891495;29;20032;-77
2023/02/27 06:34:18;;;;;;;5.03;1.90;;;;;;;;;;4892527;29;20506;-77
2023/02/27 06:36:44;;;;;;;3.83;1.67;;;;;;;;;;4891944;29;20467;-77
2023/02/27 06:39:12;;;;;;;2.28;1.70;;;;;;;;;;4887564;29;20032;-77
2023/02/27 06:41:39;;;;;;;3.85;1.90;;;;;;;;;;4873503;29;20028;-78
2023/02/27 06:44:05;;;;;;;1.90;1.80;;;;;;;;;;4896410;29;20112;-79
2023/02/27 06:46:31;;;;;;;1.85;1.75;;;;;;;;;;4900277;29;20045;-77
2023/02/27 06:48:57;;;;;;;3.88;1.95;;;;;;;;;;4896987;29;20109;-77
2023/02/27 06:51:23;;;;;;;2.53;1.60;;;;;;;;;;4879836;29;20064;-78
2023/02/27 06:53:49;;;;;;;2.53;2.25;;;;;;;;;;4896348;29;20025;-77
2023/02/27 06:56:15;;;;;;;2.00;1.60;;;;;;;;;;4895489;29;20044;-77
2023/02/27 06:58:42;;;;;;;1.90;1.80;;;;;;;;;;4894461;29;20437;-78
2023/02/27 07:01:08;;;;;;;2.47;1.90;;;;;;;;;;4901984;29;20033;-78
2023/02/27 07:03:34;;;;;;;3.05;1.90;;;;;;;;;;4896405;29;20438;-77
2023/02/27 07:06:01;;;;;;;3.38;1.75;;;;;;;;;;4901146;29;20036;-79
2023/02/27 07:08:27;;;;;;;2.03;1.75;;;;;;;;;;4894819;29;20084;-77
2023/02/27 07:10:53;;;;;;;3.85;1.63;;;;;;;;;;4879008;29;20407;-78
2023/02/27 07:13:19;;;;;;;1.70;1.60;;;;;;;;;;4871787;29;20021;-78
2023/02/27 07:15:46;;;;;;;2.20;1.80;;;;;;;;;;4898494;29;20063;-77
2023/02/27 07:18:12;;;;;;;5.38;1.88;;;;;;;;;;4891161;29;20073;-77
2023/02/27 07:20:39;;;;;;;2.80;2.35;;;;;;;;;;4894143;29;20080;-78
2023/02/27 07:23:05;;;;;;;2.22;1.70;;;;;;;;;;4892533;29;20394;-77
2023/02/27 07:25:31;;;;;;;2.63;2.08;;;;;;;;;;4889629;29;20398;-77
2023/02/27 07:27:57;;;;;;;5.93;1.95;;;;;;;;;;4892751;29;20025;-77
2023/02/27 07:30:23;;;;;;;6.72;2.20;;;;;;;;;;4876077;29;20036;-77
2023/02/27 07:32:49;;;;;;;2.40;1.70;;;;;;;;;;4894869;29;20058;-77
2023/02/27 07:35:16;;;;;;;3.38;2.30;;;;;;;;;;4884083;29;20096;-78
2023/02/27 07:37:42;;;;;;;7.70;2.30;;;;;;;;;;4897322;29;20027;-77
2023/02/27 07:40:08;;;;;;;4.40;1.85;;;;;;;;;;4894150;29;20032;-78
2023/02/27 07:42:35;;;;;;;2.65;1.85;;;;;;;;;;4895779;29;20025;-77
2023/02/27 07:45:01;;;;;;;2.00;1.63;;;;;;;;;;4898706;29;20037;-78
2023/02/27 07:47:29;;;;;;;1.90;1.80;;;;;;;;;;4895415;29;20048;-77
2023/02/27 07:49:56;;;;;;;5.15;2.10;;;;;;;;;;4876116;29;20056;-77
2023/02/27 07:52:23;;;;;;;6.68;2.55;;;;;;;;;;4877577;29;20029;-76
2023/02/27 07:54:49;;;;;;;4.75;1.95;;;;;;;;;;4893580;29;20370;-78
2023/02/27 07:57:15;;;;;;;3.40;1.85;;;;;;;;;;4892495;29;20099;-77
2023/02/27 07:59:41;;;;;;;3.05;2.15;;;;;;;;;;4893716;29;20119;-78
2023/02/27 08:02:09;;;;;;;10.50;3.03;;;;;;;;;;4893531;29;20033;-77
2023/02/27 08:04:35;;;;;;;4.88;2.63;;;;;;;;;;4896559;29;20029;-77
2023/02/27 08:07:02;;;;;;;4.88;2.08;;;;;;;;;;4897503;29;20093;-78
2023/02/27 08:09:31;;;;;;;2.60;2.35;;;;;;;;;;4894580;29;20028;-77
2023/02/27 08:12:01;;;;;;;4.50;2.28;;;;;;;;;;4891991;29;20029;-77
2023/02/27 08:14:28;;;;;;;4.28;2.08;;;;;;;;;;4900562;29;20032;-77
2023/02/27 08:16:54;;;;;;;3.08;1.80;;;;;;;;;;4891571;29;20169;-78
2023/02/27 08:19:20;;;;;;;5.93;2.10;;;;;;;;;;4893809;29;20703;-77
2023/02/27 08:21:47;;;;;;;6.90;2.25;;;;;;;;;;4900880;29;20032;-77
2023/02/27 08:24:13;;;;;;;7.40;2.45;;;;;;;;;;4901909;29;20044;-78
2023/02/27 08:26:39;;;;;;;4.10;2.00;;;;;;;;;;4890205;29;20060;-78
2023/02/27 08:29:05;;;;;;;4.18;2.00;;;;;;;;;;4896680;29;20028;-77
2023/02/27 08:31:31;;;;;;;5.82;2.38;;;;;;;;;;4889252;29;20082;-77
2023/02/27 08:33:59;;;;;;;7.47;2.47;;;;;;;;;;4878006;29;20029;-77
2023/02/27 08:36:25;;;;;;;3.10;2.00;;;;;;;;;;4895494;29;20052;-77
2023/02/27 08:38:51;;;;;;;4.65;2.05;;;;;;;;;;4895237;29;20061;-78
2023/02/27 08:41:17;;;;;;;6.15;2.22;;;;;;;;;;4893624;29;20488;-77
2023/02/27 08:43:44;;;;;;;6.20;2.60;;;;;;;;;;4899228;29;20039;-77
2023/02/27 08:46:12;;;;;;;2.50;2.00;;;;;;;;;;4884699;29;20890;-77
2023/02/27 08:48:38;;;;;;;3.05;1.80;;;;;;;;;;4895730;29;20040;-76
2023/02/27 08:51:05;;;;;;;5.78;1.90;;;;;;;;;;4898212;29;20048;-77
2023/02/27 08:53:31;;;;;;;4.00;2.22;;;;;;;;;;4889017;29;20039;-77
2023/02/27 08:55:57;;;;;;;3.50;1.90;;;;;;;;;;4870501;29;20128;-78
2023/02/27 08:58:23;;;;;;;1.67;1.58;;;;;;;;;;4889363;29;20040;-77
2023/02/27 09:00:49;;;;;;;4.20;1.80;;;;;;;;;;4890601;29;20515;-78
2023/02/27 09:03:15;;;;;;;3.38;1.95;;;;;;;;;;4888129;29;20040;-78
2023/02/27 09:05:42;;;;;;;3.03;1.67;;;;;;;;;;4889972;29;20025;-77
2023/02/27 09:08:08;;;;;;;4.63;1.80;;;;;;;;;;4876481;29;20204;-78
2023/02/27 09:10:35;;;;;;;2.35;1.70;;;;;;;;;;4897592;29;20028;-78
2023/02/27 09:13:01;;;;;;;3.85;2.30;;;;;;;;;;4893864;29;20033;-78
2023/02/27 09:15:28;;;;;;;2.65;1.90;;;;;;;;;;4898256;29;20080;-77
2023/02/27 09:18:01;;;;;;;3.55;1.75;;;;;;;;;;4894115;29;20551;-78
2023/02/27 09:20:28;;;;;;;1.80;1.65;;;;;;;;;;4895734;29;20028;-78
2023/02/27 09:22:54;;;;;;;4.80;2.28;;;;;;;;;;4894905;29;20523;-78
2023/02/27 09:25:22;;;;;;;1.98;1.50;;;;;;;;;;4894444;29;20391;-78
2023/02/27 09:27:49;;;;;;;2.97;1.90;;;;;;;;;;4901496;29;20081;-80
2023/02/27 09:30:15;;;;;;;2.13;1.80;;;;;;;;;;4895186;29;20109;-79
2023/02/27 09:32:43;;;;;;;4.07;1.70;;;;;;;;;;4898554;29;20029;-76
2023/02/27 09:35:09;;;;;;;2.08;1.70;;;;;;;;;;4901430;29;20026;-76
2023/02/27 09:37:35;;;;;;;2.95;1.77;;;;;;;;;;4879882;29;20187;-77
2023/02/27 09:40:04;;;;;;;1.90;1.48;;;;;;;;;;4894550;29;20040;-78
2023/02/27 09:42:44;;;;;;;5.70;1.88;;;;;;;;;;4894783;29;20051;-77
2023/02/27 09:45:15;;;;;;;5.78;2.22;;;;;;;;;;4900980;29;20601;-76
2023/02/27 09:47:44;;;;;;;3.75;2.30;;;;;;;;;;4894391;29;20059;-76
2023/02/27 09:50:29;;;;;;;4.85;2.22;;;;;;;;;;4892549;29;20033;-77
2023/02/27 09:53:02;;;;;;;4.57;2.03;;;;;;;;;;4896478;29;20024;-78
2023/02/27 09:55:32;;;;;;;3.40;2.10;;;;;;;;;;4874132;29;20082;-78
2023/02/27 09:58:06;;;;;;;5.43;2.63;;;;;;;;;;4896471;29;20032;-79
2023/02/27 10:00:35;;;;;;;4.50;1.95;;;;;;;;;;4898463;29;20040;-78
2023/02/27 10:03:05;;;;;;;2.03;1.40;;;;;;;;;;4900681;29;20050;-78
2023/02/27 10:05:34;;;;;;;4.47;1.70;;;;;;;;;;4907857;29;20595;-76
2023/02/27 10:08:06;;;;;;;3.30;1.73;;;;;;;;;;4906538;29;20043;-78
2023/02/27 10:10:45;;;;;;;3.22;1.75;;;;;;;;;;4899958;29;20039;-78
2023/02/27 10:13:11;;;;;;;7.03;1.90;;;;;;;;;;4896584;29;20479;-78
2023/02/27 10:15:40;;;;;;;2.88;1.80;;;;;;;;;;4899387;29;20081;-77
2023/02/27 10:18:06;;;;;;;2.63;2.03;;;;;;;;;;4891526;29;20016;-78
2023/02/27 10:20:34;;;;;;;5.93;1.80;;;;;;;;;;4895742;29;20028;-78
2023/02/27 10:23:03;;;;;;;1.80;1.60;;;;;;;;;;4896825;29;20107;-78
2023/02/27 10:25:32;;;;;;;1.80;1.70;;;;;;;;;;4899732;29;20056;-78
2023/02/27 10:28:02;;;;;;;2.30;1.70;;;;;;;;;;4896718;29;20032;-77
2023/02/27 10:30:29;;;;;;;4.50;1.90;;;;;;;;;;4894050;29;20039;-77
2023/02/27 10:33:02;;;;;;;5.70;2.85;;;;;;;;;;4900218;29;20025;-78
2023/02/27 10:35:33;;;;;;;2.13;1.60;;;;;;;;;;4893505;29;20107;-77
2023/02/27 10:38:01;;;;;;;5.43;2.00;;;;;;;;;;4895921;29;20084;-77
2023/02/27 10:40:28;;;;;;;3.75;1.60;;;;;;;;;;4896749;29;20029;-79
2023/02/27 10:42:56;;;;;;;2.00;1.80;;;;;;;;;;4884019;29;20040;-78
2023/02/27 10:45:22;;;;;;;2.78;1.70;;;;;;;;;;4896823;29;20028;-77
2023/02/27 10:47:50;;;;;;;5.00;1.90;;;;;;;;;;4894458;29;20603;-77
2023/02/27 10:50:20;;;;;;;5.10;2.38;;;;;;;;;;4896651;29;20037;-78
2023/02/27 10:53:13;;;;;;;2.95;1.70;;;;;;;;;;4880436;29;20039;-77
2023/02/27 10:55:39;;;;;;;3.47;2.08;;;;;;;;;;4890244;29;20070;-78
2023/02/27 10:58:06;;;;;;;1.65;1.50;;;;;;;;;;4882294;29;20032;-80
2023/02/27 11:00:48;;;;;;;15.50;2.15;;;;;;;;;;4877230;29;20025;-78
2023/02/27 11:03:21;;;;;;;3.83;1.48;;;;;;;;;;4888112;29;20442;-77
2023/02/27 11:05:59;;;;;;;1.98;1.85;;;;;;;;;;4890190;29;20123;-77
2023/02/27 11:08:30;;;;;;;3.88;1.70;;;;;;;;;;4896556;29;20036;-77
2023/02/27 11:11:00;;;;;;;2.55;2.03;;;;;;;;;;4896445;29;20457;-78
2023/02/27 11:13:28;;;;;;;3.22;1.73;;;;;;;;;;4894317;29;20107;-79
2023/02/27 11:16:01;;;;;;;2.70;1.83;;;;;;;;;;4892156;29;20021;-78
2023/02/27 11:18:29;;;;;;;3.20;1.75;;;;;;;;;;4894908;29;20053;-77
2023/02/27 11:21:10;;;;;;;3.00;1.88;;;;;;;;;;4898913;29;20036;-78
2023/02/27 11:23:36;;;;;;;3.17;2.03;;;;;;;;;;4896204;29;20031;-78
2023/02/27 11:26:32;;;;;;;2.38;1.90;;;;;;;;;;4897657;29;20100;-78
2023/02/27 11:29:04;;;;;;;5.57;2.05;;;;;;;;;;4879435;29;20062;-78
2023/02/27 11:31:31;;;;;;;4.10;2.38;;;;;;;;;;4880642;29;20028;-77
2023/02/27 11:33:59;;;;;;;2.85;1.88;;;;;;;;;;4894810;29;20567;-77
2023/02/27 11:36:42;;;;;;;4.68;2.72;;;;;;;;;;4889008;29;20053;-78
2023/02/27 11:39:17;;;;;;;4.28;2.50;;;;;;;;;;4878147;29;20036;-79
2023/02/27 11:41:44;;;;;;;4.90;2.63;;;;;;;;;;4889549;29;20043;-77
2023/02/27 11:44:15;;;;;;;3.95;2.08;;;;;;;;;;4874375;29;20127;-80
2023/02/27 11:46:43;;;;;;;2.53;1.63;;;;;;;;;;4877673;29;20481;-78
2023/02/27 11:49:17;;;;;;;2.70;1.80;;;;;;;;;;4882623;29;20040;-77
2023/02/27 11:51:46;;;;;;;2.20;1.80;;;;;;;;;;4889246;29;20028;-79
2023/02/27 11:54:14;;;;;;;2.80;2.13;;;;;;;;;;4891629;29;20041;-79
2023/02/27 11:56:47;;;;;;;2.42;1.60;;;;;;;;;;4900562;29;20055;-77
2023/02/27 11:59:17;;;;;;;2.20;1.50;;;;;;;;;;4890536;29;20103;-77
2023/02/27 12:01:56;;;;;;;3.40;1.75;;;;;;;;;;4891791;29;20036;-78
2023/02/27 12:04:39;;;;;;;1.52;1.20;;;;;;;;;;4894415;29;20080;-80
2023/02/27 12:07:12;;;;;;;1.83;1.40;;;;;;;;;;4893776;29;20059;-78
2023/02/27 12:09:38;;;;;;;1.90;1.50;;;;;;;;;;4879961;29;20037;-78
2023/02/27 12:12:07;;;;;;;2.15;1.63;;;;;;;;;;4894456;29;20033;-79
2023/02/27 12:14:41;;;;;;;2.13;1.58;;;;;;;;;;4880314;29;20075;-80
2023/02/27 12:17:36;;;;;;;2.97;1.80;;;;;;;;;;4904270;29;20044;-78
2023/02/27 12:20:21;;;;;;;1.83;1.70;;;;;;;;;;4881532;29;20096;-78
2023/02/27 12:22:48;;;;;;;1.70;1.60;;;;;;;;;;4902547;29;20039;-78
2023/02/27 12:25:23;;;;;;;1.83;1.67;;;;;;;;;;4904160;29;20036;-79
2023/02/27 12:27:49;;;;;;;2.00;1.40;;;;;;;;;;4897695;29;20029;-79
2023/02/27 12:30:21;;;;;;;2.65;1.70;;;;;;;;;;4876177;29;20037;-78
2023/02/27 12:33:05;;;;;;;2.92;1.60;;;;;;;;;;4895433;29;20459;-78
2023/02/27 12:35:32;;;;;;;3.50;1.90;;;;;;;;;;4876339;29;20029;-78
2023/02/27 12:37:59;;;;;;;2.08;1.60;;;;;;;;;;4894568;29;20033;-79
2023/02/27 12:40:29;;;;;;;3.38;1.70;;;;;;;;;;4895685;29;20032;-78
2023/02/27 12:43:10;;;;;;;1.80;1.70;;;;;;;;;;4899292;29;20033;-79
2023/02/27 12:45:54;;;;;;;4.60;1.75;;;;;;;;;;4897753;29;20044;-78
2023/02/27 12:48:27;;;;;;;1.48;1.38;;;;;;;;;;4896754;29;21150;-78
2023/02/27 12:50:58;;;;;;;1.23;1.20;;;;;;;;;;4888927;29;20033;-77
2023/02/27 12:53:33;;;;;;;6.78;1.67;;;;;;;;;;4893340;29;20088;-78
2023/02/27 12:56:17;;;;;;;1.58;1.48;;;;;;;;;;4899914;29;20548;-78
2023/02/27 12:58:43;;;;;;;1.70;1.58;;;;;;;;;;4895298;29;20447;-79
2023/02/27 13:01:13;;;;;;;2.95;1.80;;;;;;;;;;4883058;29;20108;-78
2023/02/27 13:03:43;;;;;;;1.80;1.70;;;;;;;;;;4888380;29;20057;-78
2023/02/27 13:06:16;;;;;;;3.60;2.15;;;;;;;;;;4884897;29;20057;-78
2023/02/27 13:08:43;;;;;;;2.28;2.00;;;;;;;;;;4898050;29;20036;-77
2023/02/27 13:11:20;;;;;;;2.10;2.00;;;;;;;;;;4883949;29;20040;-77
2023/02/27 13:13:58;;;;;;;2.25;1.58;;;;;;;;;;4895459;29;20496;-77
2023/02/27 13:16:30;;;;;;;3.28;2.40;;;;;;;;;;4899548;29;20036;-78
2023/02/27 13:18:58;;;;;;;4.45;2.33;;;;;;;;;;4893784;29;20024;-78
2023/02/27 13:21:25;;;;;;;7.47;3.30;;;;;;;;;;4897432;29;20060;-77
2023/02/27 13:23:57;;;;;;;3.38;2.72;;;;;;;;;;4896460;29;20045;-78
2023/02/27 13:26:32;;;;;;;8.05;3.67;;;;;;;;;;4896393;29;20026;-77
2023/02/27 13:28:59;;;;;;;1.98;1.77;;;;;;;;;;4898343;29;20487;-77
2023/02/27 13:31:34;;;;;;;2.08;1.83;;;;;;;;;;4902079;29;20036;-77
2023/02/27 13:34:16;;;;;;;3.70;2.03;;;;;;;;;;4885859;29;20052;-77
2023/02/27 13:36:45;;;;;;;3.05;1.48;;;;;;;;;;4898113;29;20073;-77
2023/02/27 13:39:30;;;;;;;2.85;1.63;;;;;;;;;;4901971;29;20024;-76
2023/02/27 13:41:56;;;;;;;9.40;2.80;;;;;;;;;;4903164;29;20036;-77
2023/02/27 13:44:25;;;;;;;2.83;1.90;;;;;;;;;;4898633;29;20578;-77
2023/02/27 13:46:51;;;;;;;4.60;3.10;;;;;;;;;;4897308;29;20488;-76
2023/02/27 13:49:22;;;;;;;2.58;2.10;;;;;;;;;;4899974;29;20055;-77
2023/02/27 13:51:49;;;;;;;3.83;2.28;;;;;;;;;;4898743;29;20230;-78
2023/02/27 13:54:16;;;;;;;3.22;2.20;;;;;;;;;;4897976;29;20024;-78
2023/02/27 13:56:56;;;;;;;3.60;1.80;;;;;;;;;;4880780;29;20033;-77
2023/02/27 13:59:38;;;;;;;2.35;1.90;;;;;;;;;;4877335;29;20025;-77
2023/02/27 14:02:20;;;;;;;3.30;1.85;;;;;;;;;;4898489;29;20040;-76
2023/02/27 14:04:51;;;;;;;1.80;1.67;;;;;;;;;;4889451;29;20043;-78
2023/02/27 14:07:20;;;;;;;2.92;2.00;;;;;;;;;;4883462;29;20540;-78
2023/02/27 14:09:47;;;;;;;3.58;1.52;;;;;;;;;;4893229;29;20072;-77
2023/02/27 14:12:31;;;;;;;1.80;1.70;;;;;;;;;;4902462;29;20510;-76
2023/02/27 14:14:58;;;;;;;2.97;2.03;;;;;;;;;;4898239;29;20029;-77
2023/02/27 14:17:36;;;;;;;5.75;2.25;;;;;;;;;;4898598;29;20107;-77
2023/02/27 14:20:34;;;;;;;3.53;2.50;;;;;;;;;;4899114;29;20041;-78
2023/02/27 14:23:20;;;;;;;2.75;2.00;;;;;;;;;;4890483;29;20032;-77
2023/02/27 14:25:49;;;;;;;3.35;1.95;;;;;;;;;;4898365;29;20024;-76
2023/02/27 14:28:21;;;;;;;4.40;2.20;;;;;;;;;;4909088;29;20064;-78
2023/02/27 14:30:53;;;;;;;1.83;1.60;;;;;;;;;;4901232;29;20036;-78
2023/02/27 14:33:38;;;;;;;1.45;1.35;;;;;;;;;;4903388;29;20032;-75
2023/02/27 14:36:06;;;;;;;3.03;1.80;;;;;;;;;;4901208;29;20106;-77
2023/02/27 14:38:33;;;;;;;2.22;1.83;;;;;;;;;;4889637;29;20112;-77
2023/02/27 14:41:21;;;;;;;2.90;2.03;;;;;;;;;;4897281;29;20487;-77
2023/02/27 14:43:54;;;;;;;3.53;1.83;;;;;;;;;;4899013;29;20050;-76
2023/02/27 14:46:25;;;;;;;5.00;1.92;;;;;;;;;;4896089;29;20029;-76
2023/02/27 14:48:58;;;;;;;3.30;2.40;;;;;;;;;;4896209;29;20064;-78
2023/02/27 14:51:24;;;;;;;4.07;2.38;;;;;;;;;;4902004;29;20140;-77
2023/02/27 14:54:14;;;;;;;5.18;3.03;;;;;;;;;;4894522;29;20025;-78
2023/02/27 14:56:41;;;;;;;5.57;2.33;;;;;;;;;;4885389;29;20040;-76
2023/02/27 14:59:24;;;;;;;4.03;2.42;;;;;;;;;;4879967;29;20037;-77
2023/02/27 15:01:51;;;;;;;3.85;1.95;;;;;;;;;;4893680;29;20036;-76